sensor_id;sensor_type;location;lat;lon;timestamp;P1;durP1;ratioP1;P2;durP2;ratioP2
38899;SDS011;24660;43.238;26.576;2022-09-01T13:20:02;19.52;;;18.02;;
38899;SDS011;24660;43.238;26.576;2022-09-01T13:22:29;19.65;;;18.15;;
38899;SDS011;24660;43.238;26.576;2022-09-01T13:24:54;19.73;;;18.20;;
38899;SDS011;24660;43.238;26.576;2022-09-01T13:27:20;19.80;;;18.30;;
38899;SDS011;24660;43.238;26.576;2022-09-01T13:29:46;19.85;;;18.35;;
38899;SDS011;24660;43.238;26.576;2022-09-01T13:32:14;19.27;;;17.77;;
38899;SDS011;24660;43.238;26.576;2022-09-01T13:34:44;19.75;;;18.25;;
38899;SDS011;24660;43.238;26.576;2022-09-01T13:37:09;20.08;;;18.48;;
38899;SDS011;24660;43.238;26.576;2022-09-01T13:39:34;19.60;;;18.10;;
38899;SDS011;24660;43.238;26.576;2022-09-01T13:42:00;19.90;;;18.40;;
38899;SDS011;24660;43.238;26.576;2022-09-01T13:44:26;19.58;;;18.08;;
38899;SDS011;24660;43.238;26.576;2022-09-01T13:46:52;19.30;;;17.80;;
38899;SDS011;24660;43.238;26.576;2022-09-01T13:49:19;19.25;;;17.75;;
38899;SDS011;24660;43.238;26.576;2022-09-01T13:51:49;19.27;;;17.77;;
38899;SDS011;24660;43.238;26.576;2022-09-01T13:54:15;18.98;;;17.58;;
38899;SDS011;24660;43.238;26.576;2022-09-01T13:56:41;19.10;;;17.70;;
38899;SDS011;24660;43.238;26.576;2022-09-01T13:59:06;19.10;;;17.70;;
38899;SDS011;24660;43.238;26.576;2022-09-01T14:01:32;19.65;;;18.15;;
38899;SDS011;24660;43.238;26.576;2022-09-01T14:03:58;19.55;;;18.05;;
38899;SDS011;24660;43.238;26.576;2022-09-01T14:06:23;19.27;;;17.77;;
38899;SDS011;24660;43.238;26.576;2022-09-01T14:08:49;19.65;;;18.15;;
38899;SDS011;24660;43.238;26.576;2022-09-01T14:11:15;19.60;;;18.10;;
38899;SDS011;24660;43.238;26.576;2022-09-01T14:13:43;19.02;;;17.63;;
38899;SDS011;24660;43.238;26.576;2022-09-01T14:16:10;19.35;;;17.85;;
38899;SDS011;24660;43.238;26.576;2022-09-01T14:18:37;19.27;;;17.85;;
38899;SDS011;24660;43.238;26.576;2022-09-01T14:21:03;19.10;;;17.70;;
38899;SDS011;24660;43.238;26.576;2022-09-01T14:23:30;18.95;;;17.55;;
38899;SDS011;24660;43.238;26.576;2022-09-01T14:25:56;18.77;;;17.38;;
38899;SDS011;24660;43.238;26.576;2022-09-01T14:28:23;18.63;;;17.23;;
38899;SDS011;24660;43.238;26.576;2022-09-01T14:30:48;19.00;;;17.60;;
38899;SDS011;24660;43.238;26.576;2022-09-01T14:33:16;18.35;;;17.00;;
38899;SDS011;24660;43.238;26.576;2022-09-01T14:35:43;18.85;;;17.45;;
38899;SDS011;24660;43.238;26.576;2022-09-01T14:38:10;19.27;;;17.88;;
38899;SDS011;24660;43.238;26.576;2022-09-01T14:40:37;19.08;;;17.67;;
38899;SDS011;24660;43.238;26.576;2022-09-01T14:43:05;18.83;;;17.42;;
38899;SDS011;24660;43.238;26.576;2022-09-01T14:45:34;19.10;;;17.70;;
38899;SDS011;24660;43.238;26.576;2022-09-01T14:48:02;18.63;;;17.23;;
38899;SDS011;24660;43.238;26.576;2022-09-01T14:50:28;19.45;;;17.95;;
38899;SDS011;24660;43.238;26.576;2022-09-01T14:55:22;19.48;;;17.98;;
38899;SDS011;24660;43.238;26.576;2022-09-01T14:57:50;19.30;;;17.80;;
38899;SDS011;24660;43.238;26.576;2022-09-01T15:00:16;18.98;;;17.58;;
38899;SDS011;24660;43.238;26.576;2022-09-01T15:02:43;18.98;;;17.58;;
38899;SDS011;24660;43.238;26.576;2022-09-01T15:05:09;19.08;;;17.70;;
38899;SDS011;24660;43.238;26.576;2022-09-01T15:07:36;20.00;;;18.55;;
38899;SDS011;24660;43.238;26.576;2022-09-01T15:10:03;19.50;;;18.10;;
38899;SDS011;24660;43.238;26.576;2022-09-01T15:12:29;18.77;;;17.38;;
38899;SDS011;24660;43.238;26.576;2022-09-01T15:14:56;19.27;;;17.88;;
38899;SDS011;24660;43.238;26.576;2022-09-01T15:17:23;19.65;;;18.15;;
38899;SDS011;24660;43.238;26.576;2022-09-01T15:19:49;19.58;;;18.08;;
38899;SDS011;24660;43.238;26.576;2022-09-01T15:22:14;19.45;;;17.95;;
38899;SDS011;24660;43.238;26.576;2022-09-01T15:24:40;19.20;;;17.70;;
38899;SDS011;24660;43.238;26.576;2022-09-01T15:27:06;18.17;;;16.77;;
38899;SDS011;24660;43.238;26.576;2022-09-01T15:29:32;17.67;;;16.37;;
38899;SDS011;24660;43.238;26.576;2022-09-01T15:53:59;14.95;;;13.85;;
38899;SDS011;24660;43.238;26.576;2022-09-01T15:56:27;15.93;;;14.73;;
38899;SDS011;24660;43.238;26.576;2022-09-01T15:58:55;15.40;;;14.30;;
38899;SDS011;24660;43.238;26.576;2022-09-01T16:01:23;15.43;;;14.32;;
38899;SDS011;24660;43.238;26.576;2022-09-01T16:03:49;14.98;;;13.88;;
38899;SDS011;24660;43.238;26.576;2022-09-01T16:06:14;14.77;;;13.68;;
38899;SDS011;24660;43.238;26.576;2022-09-01T16:08:40;14.82;;;13.73;;
38899;SDS011;24660;43.238;26.576;2022-09-01T16:51:47;13.65;;;12.73;;
38899;SDS011;24660;43.238;26.576;2022-09-01T17:02:32;12.63;;;11.73;;
38899;SDS011;24660;43.238;26.576;2022-09-01T17:12:57;11.73;;;10.93;;
38899;SDS011;24660;43.238;26.576;2022-09-01T17:15:39;12.40;;;11.57;;
38899;SDS011;24660;43.238;26.576;2022-09-01T17:18:11;12.83;;;11.93;;
38899;SDS011;24660;43.238;26.576;2022-09-01T17:23:08;13.02;;;12.13;;
38899;SDS011;24660;43.238;26.576;2022-09-01T17:25:43;12.90;;;12.00;;
38899;SDS011;24660;43.238;26.576;2022-09-01T17:28:17;12.98;;;12.07;;
38899;SDS011;24660;43.238;26.576;2022-09-01T17:30:52;12.85;;;11.95;;
38899;SDS011;24660;43.238;26.576;2022-09-01T19:57:52;2.60;;;2.50;;
38899;SDS011;24660;43.238;26.576;2022-09-01T20:00:23;2.70;;;2.60;;
38899;SDS011;24660;43.238;26.576;2022-09-01T20:02:56;2.47;;;2.38;;
38899;SDS011;24660;43.238;26.576;2022-09-01T20:08:05;2.70;;;2.60;;
38899;SDS011;24660;43.238;26.576;2022-09-01T20:16:06;2.63;;;2.53;;
38899;SDS011;24660;43.238;26.576;2022-09-01T20:18:45;2.47;;;2.38;;
38899;SDS011;24660;43.238;26.576;2022-09-01T20:21:17;2.70;;;2.60;;
38899;SDS011;24660;43.238;26.576;2022-09-01T20:26:19;2.42;;;2.33;;
38899;SDS011;24660;43.238;26.576;2022-09-01T20:31:37;2.30;;;2.20;;
38899;SDS011;24660;43.238;26.576;2022-09-01T20:36:52;2.70;;;2.60;;
38899;SDS011;24660;43.238;26.576;2022-09-01T20:39:34;2.65;;;2.55;;
38899;SDS011;24660;43.238;26.576;2022-09-01T20:42:20;2.50;;;2.40;;
38899;SDS011;24660;43.238;26.576;2022-09-01T20:44:56;2.70;;;2.60;;
38899;SDS011;24660;43.238;26.576;2022-09-01T20:47:25;2.40;;;2.30;;
38899;SDS011;24660;43.238;26.576;2022-09-01T20:49:52;2.63;;;2.53;;
38899;SDS011;24660;43.238;26.576;2022-09-01T20:52:23;2.60;;;2.50;;
38899;SDS011;24660;43.238;26.576;2022-09-01T20:59:58;2.40;;;2.30;;
38899;SDS011;24660;43.238;26.576;2022-09-01T21:02:34;2.47;;;2.38;;
38899;SDS011;24660;43.238;26.576;2022-09-01T21:05:18;2.58;;;2.47;;
38899;SDS011;24660;43.238;26.576;2022-09-01T21:10:46;2.80;;;2.70;;
38899;SDS011;24660;43.238;26.576;2022-09-01T21:18:57;3.10;;;2.90;;
38899;SDS011;24660;43.238;26.576;2022-09-01T21:21:40;3.10;;;2.90;;
38899;SDS011;24660;43.238;26.576;2022-09-01T21:24:07;3.03;;;2.83;;
38899;SDS011;24660;43.238;26.576;2022-09-01T21:26:35;3.20;;;3.00;;
38899;SDS011;24660;43.238;26.576;2022-09-01T21:29:10;2.95;;;2.75;;
38899;SDS011;24660;43.238;26.576;2022-09-01T21:31:57;2.70;;;2.60;;
38899;SDS011;24660;43.238;26.576;2022-09-01T21:34:23;2.60;;;2.50;;
38899;SDS011;24660;43.238;26.576;2022-09-01T21:36:49;2.60;;;2.50;;
38899;SDS011;24660;43.238;26.576;2022-09-01T21:39:15;2.45;;;2.35;;
38899;SDS011;24660;43.238;26.576;2022-09-01T21:41:40;2.47;;;2.38;;
38899;SDS011;24660;43.238;26.576;2022-09-01T21:44:06;2.55;;;2.45;;
38899;SDS011;24660;43.238;26.576;2022-09-01T21:46:33;2.42;;;2.33;;
38899;SDS011;24660;43.238;26.576;2022-09-01T21:48:58;2.38;;;2.28;;
38899;SDS011;24660;43.238;26.576;2022-09-01T21:51:23;2.40;;;2.30;;
38899;SDS011;24660;43.238;26.576;2022-09-01T21:53:49;2.28;;;2.17;;
38899;SDS011;24660;43.238;26.576;2022-09-01T21:56:14;2.35;;;2.25;;
38899;SDS011;24660;43.238;26.576;2022-09-01T21:58:40;2.40;;;2.30;;
38899;SDS011;24660;43.238;26.576;2022-09-01T22:01:05;2.40;;;2.30;;
38899;SDS011;24660;43.238;26.576;2022-09-01T22:03:31;2.20;;;2.10;;
38899;SDS011;24660;43.238;26.576;2022-09-01T22:05:57;2.13;;;2.03;;
38899;SDS011;24660;43.238;26.576;2022-09-01T22:08:23;2.10;;;2.00;;
38899;SDS011;24660;43.238;26.576;2022-09-01T22:10:50;2.10;;;2.00;;
38899;SDS011;24660;43.238;26.576;2022-09-01T22:13:18;2.13;;;2.03;;
38899;SDS011;24660;43.238;26.576;2022-09-01T22:15:46;2.20;;;2.10;;
38899;SDS011;24660;43.238;26.576;2022-09-01T22:18:13;2.30;;;2.20;;
38899;SDS011;24660;43.238;26.576;2022-09-01T22:20:41;2.22;;;2.13;;
38899;SDS011;24660;43.238;26.576;2022-09-01T22:23:07;2.45;;;2.35;;
38899;SDS011;24660;43.238;26.576;2022-09-01T22:25:33;2.28;;;2.17;;
38899;SDS011;24660;43.238;26.576;2022-09-01T22:28:04;2.20;;;2.10;;
38899;SDS011;24660;43.238;26.576;2022-09-01T22:30:30;2.40;;;2.30;;
38899;SDS011;24660;43.238;26.576;2022-09-01T22:32:56;2.20;;;2.10;;
38899;SDS011;24660;43.238;26.576;2022-09-01T22:35:24;2.20;;;2.10;;
38899;SDS011;24660;43.238;26.576;2022-09-01T22:37:49;2.20;;;2.10;;
38899;SDS011;24660;43.238;26.576;2022-09-01T22:40:15;2.40;;;2.30;;
38899;SDS011;24660;43.238;26.576;2022-09-01T22:42:41;2.10;;;2.00;;
38899;SDS011;24660;43.238;26.576;2022-09-01T22:45:08;2.00;;;1.90;;
38899;SDS011;24660;43.238;26.576;2022-09-01T22:47:35;2.10;;;2.00;;
38899;SDS011;24660;43.238;26.576;2022-09-01T22:50:02;2.00;;;1.90;;
38899;SDS011;24660;43.238;26.576;2022-09-01T22:52:28;1.80;;;1.70;;
38899;SDS011;24660;43.238;26.576;2022-09-01T22:54:54;2.00;;;1.90;;
38899;SDS011;24660;43.238;26.576;2022-09-01T22:57:21;2.00;;;1.90;;
38899;SDS011;24660;43.238;26.576;2022-09-01T22:59:47;2.10;;;2.00;;
38899;SDS011;24660;43.238;26.576;2022-09-01T23:02:13;1.77;;;1.67;;
38899;SDS011;24660;43.238;26.576;2022-09-01T23:04:39;2.00;;;1.90;;
38899;SDS011;24660;43.238;26.576;2022-09-01T23:07:06;2.00;;;1.90;;
38899;SDS011;24660;43.238;26.576;2022-09-01T23:09:32;2.10;;;2.00;;
38899;SDS011;24660;43.238;26.576;2022-09-01T23:11:58;2.00;;;1.90;;
38899;SDS011;24660;43.238;26.576;2022-09-01T23:14:23;2.20;;;2.10;;
38899;SDS011;24660;43.238;26.576;2022-09-01T23:16:49;2.20;;;2.10;;
38899;SDS011;24660;43.238;26.576;2022-09-01T23:19:16;2.28;;;2.17;;
38899;SDS011;24660;43.238;26.576;2022-09-01T23:21:44;2.37;;;2.27;;
38899;SDS011;24660;43.238;26.576;2022-09-01T23:24:11;1.92;;;1.83;;
38899;SDS011;24660;43.238;26.576;2022-09-01T23:26:38;2.30;;;2.20;;
38899;SDS011;24660;43.238;26.576;2022-09-01T23:29:03;2.30;;;2.20;;
38899;SDS011;24660;43.238;26.576;2022-09-01T23:31:30;2.20;;;2.10;;
38899;SDS011;24660;43.238;26.576;2022-09-01T23:33:58;2.50;;;2.40;;
38899;SDS011;24660;43.238;26.576;2022-09-01T23:36:25;2.60;;;2.50;;
38899;SDS011;24660;43.238;26.576;2022-09-01T23:38:52;2.60;;;2.50;;
38899;SDS011;24660;43.238;26.576;2022-09-01T23:41:20;2.38;;;2.28;;
38899;SDS011;24660;43.238;26.576;2022-09-01T23:43:50;2.00;;;1.90;;
38899;SDS011;24660;43.238;26.576;2022-09-01T23:46:17;2.05;;;1.95;;
38899;SDS011;24660;43.238;26.576;2022-09-01T23:48:45;2.35;;;2.25;;
38899;SDS011;24660;43.238;26.576;2022-09-01T23:51:11;2.20;;;2.10;;
38899;SDS011;24660;43.238;26.576;2022-09-01T23:53:37;2.30;;;2.20;;
38899;SDS011;24660;43.238;26.576;2022-09-01T23:56:07;2.30;;;2.20;;
38899;SDS011;24660;43.238;26.576;2022-09-01T23:58:37;2.50;;;2.40;;
